Time;durP1;ratioP1;P1;durP2;ratioP2;P2;SDS_P1;SDS_P2;PMS_P1;PMS_P2;Temp;Humidity;BMP_temperature;BMP_pressure;BME280_temperature;BME280_humidity;BME280_pressure;Samples;Min_cycle;Max_cycle;Signal;HPM_P1;HPM_P2
2022/12/18 00:02:28;0.00;0.00;0.62;0.00;0.00;0.62;2.60;1.97;;;19.20;20.70;;;;;;2268495;61;20355;-62
2022/12/18 00:05:12;0.00;0.00;0.62;0.00;0.00;0.62;3.50;1.90;;;19.20;20.70;;;;;;2267387;61;20843;-64
2022/12/18 00:07:57;0.00;0.00;0.62;0.00;0.00;0.62;2.40;1.97;;;19.30;20.70;;;;;;2268681;61;20398;-65
2022/12/18 00:10:44;0.00;0.00;0.62;0.00;0.00;0.62;2.40;1.80;;;19.20;20.70;;;;;;2268401;61;20363;-60
2022/12/18 00:13:28;0.00;0.00;0.62;0.00;0.00;0.62;2.77;1.93;;;19.30;20.80;;;;;;2266937;61;20479;-63
2022/12/18 00:16:15;0.00;0.00;0.62;0.00;0.00;0.62;2.53;1.97;;;19.20;20.90;;;;;;2268764;61;20879;-62
2022/12/18 00:19:00;0.00;0.00;0.62;0.00;0.00;0.62;3.67;2.27;;;19.20;21.00;;;;;;2268009;61;20387;-63
2022/12/18 00:21:45;0.00;0.00;0.62;0.00;0.00;0.62;2.67;2.30;;;19.20;21.00;;;;;;2267471;61;20409;-62
2022/12/18 00:24:31;0.00;0.00;0.62;0.00;0.00;0.62;2.27;1.70;;;19.20;21.10;;;;;;2268383;61;20429;-62
2022/12/18 00:27:17;0.00;0.00;0.62;0.00;0.00;0.62;2.40;2.00;;;19.20;21.10;;;;;;2264183;61;20472;-65
2022/12/18 00:30:02;0.00;0.00;0.62;0.00;0.00;0.62;3.00;2.20;;;19.30;21.20;;;;;;2268342;61;20367;-62
2022/12/18 00:32:46;0.00;0.00;0.62;0.00;0.00;0.62;2.10;1.60;;;19.20;21.20;;;;;;2268039;61;20415;-60
2022/12/18 00:35:32;0.00;0.00;0.62;0.00;0.00;0.62;2.83;2.10;;;19.30;21.30;;;;;;2267456;61;20363;-65
2022/12/18 00:38:16;0.00;0.00;0.62;0.00;0.00;0.62;3.23;2.27;;;19.30;21.30;;;;;;2268526;61;20413;-61
2022/12/18 00:41:03;0.00;0.00;0.62;0.00;0.00;0.62;3.20;2.10;;;19.30;21.30;;;;;;2268170;61;20367;-62
2022/12/18 00:43:49;0.00;0.00;0.62;0.00;0.00;0.62;3.10;1.80;;;19.30;21.30;;;;;;2264346;61;20406;-65
2022/12/18 00:46:34;0.00;0.00;0.62;0.00;0.00;0.62;2.67;2.17;;;19.30;21.30;;;;;;2265127;61;20810;-61
2022/12/18 00:49:20;0.00;0.00;0.62;0.00;0.00;0.62;2.87;2.23;;;19.30;21.30;;;;;;2267833;61;20366;-62
2022/12/18 00:52:05;0.00;0.00;0.62;0.00;0.00;0.62;3.07;2.00;;;19.30;21.30;;;;;;2267755;61;20363;-64
2022/12/18 00:54:50;0.00;0.00;0.62;0.00;0.00;0.62;2.23;1.60;;;19.30;21.30;;;;;;2264981;61;20426;-59
2022/12/18 00:57:34;0.00;0.00;0.62;0.00;0.00;0.62;2.60;1.80;;;19.30;21.30;;;;;;2267359;61;20363;-66
2022/12/18 01:00:21;0.00;0.00;0.62;0.00;0.00;0.62;2.40;1.90;;;19.30;21.20;;;;;;2265196;61;20447;-62
2022/12/18 01:03:06;0.00;0.00;0.62;0.00;0.00;0.62;2.60;2.00;;;19.30;21.30;;;;;;2268143;61;20919;-62
2022/12/18 01:05:51;0.00;0.00;0.62;0.00;0.00;0.62;2.37;1.70;;;19.30;21.30;;;;;;2267658;61;20351;-63
2022/12/18 01:08:37;0.00;0.00;0.62;0.00;0.00;0.62;1.97;1.53;;;19.30;21.20;;;;;;2265225;61;21033;-62
2022/12/18 01:11:22;0.00;0.00;0.62;0.00;0.00;0.62;2.50;2.13;;;19.30;21.10;;;;;;2267992;61;20455;-61
2022/12/18 01:14:07;0.00;0.00;0.62;0.00;0.00;0.62;2.53;1.80;;;19.30;21.00;;;;;;2267779;61;20918;-64
2022/12/18 01:16:52;0.00;0.00;0.62;0.00;0.00;0.62;2.43;1.90;;;19.30;21.00;;;;;;2267905;61;20367;-62
2022/12/18 01:19:37;0.00;0.00;0.62;0.00;0.00;0.62;2.53;2.20;;;19.30;21.50;;;;;;2267217;61;20363;-61
2022/12/18 01:22:22;0.00;0.00;0.62;0.00;0.00;0.62;2.20;1.70;;;19.30;20.90;;;;;;2267905;61;20394;-63
2022/12/18 01:25:07;0.00;0.00;0.62;0.00;0.00;0.62;2.90;2.10;;;19.30;20.90;;;;;;2268238;61;20378;-63
2022/12/18 01:27:52;0.00;0.00;0.62;0.00;0.00;0.62;3.00;2.00;;;19.30;20.90;;;;;;2267227;61;20370;-65
2022/12/18 01:30:37;0.00;0.00;0.62;0.00;0.00;0.62;2.23;1.83;;;19.30;20.80;;;;;;2268123;61;20874;-64
2022/12/18 01:33:23;0.00;0.00;0.62;0.00;0.00;0.62;3.07;2.03;;;19.30;20.80;;;;;;2267732;61;20946;-61
2022/12/18 01:36:16;0.00;0.00;0.62;0.00;0.00;0.62;2.20;1.80;;;19.30;20.80;;;;;;2264624;61;20840;-65
2022/12/18 01:39:03;0.00;0.00;0.62;0.00;0.00;0.62;2.87;2.07;;;19.30;20.80;;;;;;2268376;61;20422;-61
2022/12/18 01:42:03;0.00;0.00;0.62;0.00;0.00;0.62;3.00;2.10;;;19.30;20.80;;;;;;2267667;61;20363;-61
2022/12/18 01:45:26;0.00;0.00;0.62;0.00;0.00;0.62;2.57;1.97;;;19.30;20.80;;;;;;2268843;61;20441;-64
2022/12/18 01:48:11;0.00;0.00;0.62;0.00;0.00;0.62;2.10;1.90;;;19.30;20.80;;;;;;2268634;61;20363;-62
2022/12/18 01:51:01;0.00;0.00;0.62;0.00;0.00;0.62;2.60;2.10;;;19.30;20.80;;;;;;2265321;61;20413;-65
2022/12/18 01:53:47;0.00;0.00;0.62;0.00;0.00;0.62;2.30;1.80;;;19.30;20.80;;;;;;2268709;61;20520;-61
2022/12/18 01:56:32;0.00;0.00;0.62;0.00;0.00;0.62;2.17;1.57;;;19.30;20.90;;;;;;2267837;61;20402;-65
2022/12/18 01:59:16;0.00;0.00;0.62;0.00;0.00;0.62;1.70;1.37;;;19.20;21.00;;;;;;2265547;61;20367;-64
2022/12/18 02:02:03;0.00;0.00;0.62;0.00;0.00;0.62;4.00;2.10;;;19.20;21.00;;;;;;2268849;61;20895;-64
2022/12/18 02:04:47;0.00;0.00;0.62;0.00;0.00;0.62;4.33;2.60;;;19.20;21.00;;;;;;2264493;61;20510;-64
2022/12/18 02:07:45;0.00;0.00;0.62;0.00;0.00;0.62;3.90;3.30;;;19.20;20.90;;;;;;2265582;61;20443;-64
2022/12/18 02:10:42;0.00;0.00;0.62;0.00;0.00;0.62;5.03;3.90;;;19.20;20.60;;;;;;2265166;61;20524;-65
2022/12/18 02:13:36;0.00;0.00;0.62;0.00;0.00;0.62;4.77;3.67;;;19.10;20.30;;;;;;2265168;61;20439;-65
2022/12/18 02:16:29;0.00;0.00;0.62;0.00;0.00;0.62;5.07;3.73;;;19.10;20.30;;;;;;2268265;61;20506;-65
2022/12/18 02:19:35;0.00;0.00;0.62;0.00;0.00;0.62;5.60;4.37;;;19.00;20.00;;;;;;2267664;61;20391;-63
2022/12/18 02:22:29;0.00;0.00;0.62;0.00;0.00;0.62;5.37;4.40;;;19.00;19.90;;;;;;2265390;61;20360;-64
2022/12/18 02:25:32;0.00;0.00;0.62;0.00;0.00;0.62;7.20;5.23;;;18.90;19.60;;;;;;2268454;61;20470;-65
2022/12/18 02:28:21;0.00;0.00;0.62;0.00;0.00;0.62;6.83;5.30;;;18.90;19.40;;;;;;2268772;61;20441;-63
2022/12/18 02:31:11;0.00;0.00;0.62;0.00;0.00;0.62;6.53;5.93;;;18.80;19.20;;;;;;2268367;61;20490;-63
2022/12/18 02:34:03;0.00;0.00;0.62;0.00;0.00;0.62;9.07;7.23;;;18.70;19.10;;;;;;2267290;61;20410;-65
2022/12/18 02:36:53;0.00;0.00;0.62;0.00;0.00;0.62;6.00;5.30;;;18.60;18.70;;;;;;2268386;61;20420;-65
2022/12/18 02:39:42;0.00;0.00;0.62;0.00;0.00;0.62;6.90;6.20;;;18.50;18.30;;;;;;2265282;61;20355;-65
2022/12/18 02:42:30;0.00;0.00;0.62;0.00;0.00;0.62;7.30;6.57;;;18.40;18.10;;;;;;2267492;61;20505;-65
2022/12/18 02:45:16;0.00;0.00;0.62;0.00;0.00;0.62;9.03;6.10;;;18.30;18.20;;;;;;2265480;61;20370;-65
2022/12/18 02:48:02;0.00;0.00;0.62;0.00;0.00;0.62;7.50;6.10;;;18.30;18.20;;;;;;2264491;61;20368;-63
2022/12/18 02:50:56;0.00;0.00;0.62;0.00;0.00;0.62;10.00;7.20;;;18.20;18.10;;;;;;2268800;61;20821;-63
2022/12/18 02:53:48;0.00;0.00;0.62;0.00;0.00;0.62;7.17;6.00;;;18.10;18.00;;;;;;2268382;61;20390;-65
2022/12/18 02:56:38;0.00;0.00;0.62;0.00;0.00;0.62;6.97;6.27;;;18.00;17.90;;;;;;2264289;61;20440;-65
2022/12/18 02:59:32;0.00;0.00;0.62;0.00;0.00;0.62;7.20;6.50;;;18.00;18.00;;;;;;2265432;61;20362;-65
2022/12/18 03:02:28;0.00;0.00;0.62;0.00;0.00;0.62;8.60;6.63;;;17.90;17.90;;;;;;2264980;61;20429;-64
2022/12/18 03:05:18;0.00;0.00;0.62;0.00;0.00;0.62;8.07;6.80;;;17.90;17.90;;;;;;2265293;61;20409;-65
2022/12/18 03:08:08;0.00;0.00;0.62;0.00;0.00;0.62;7.77;6.70;;;17.80;17.80;;;;;;2268224;61;20946;-62
2022/12/18 03:11:01;0.00;0.00;0.62;0.00;0.00;0.62;8.83;6.20;;;17.70;17.80;;;;;;2264245;61;20398;-64
2022/12/18 03:13:55;0.00;0.00;0.62;0.00;0.00;0.62;6.57;5.90;;;17.60;17.60;;;;;;2268231;61;20410;-63
2022/12/18 03:16:42;0.00;0.00;0.62;0.00;0.00;0.62;9.63;7.20;;;17.50;17.60;;;;;;2262269;61;20994;-64
2022/12/18 03:19:32;0.00;0.00;0.62;0.00;0.00;0.62;9.20;6.60;;;17.50;17.60;;;;;;2264538;61;20358;-65
2022/12/18 03:22:22;0.00;0.00;0.62;0.00;0.00;0.62;7.67;6.60;;;17.40;17.50;;;;;;2265301;61;20424;-64
2022/12/18 03:25:13;0.00;0.00;0.62;0.00;0.00;0.62;8.03;7.10;;;17.30;17.50;;;;;;2264127;61;20399;-63
2022/12/18 03:28:03;0.00;0.00;0.62;0.00;0.00;0.62;8.63;7.47;;;17.30;17.50;;;;;;2261405;61;20470;-64
2022/12/18 03:30:53;0.00;0.00;0.62;0.00;0.00;0.62;7.63;6.73;;;17.20;17.40;;;;;;2262246;61;21240;-64
2022/12/18 03:33:43;0.00;0.00;0.62;0.00;0.00;0.62;7.43;6.63;;;17.10;17.30;;;;;;2263899;61;20477;-63
2022/12/18 03:36:29;0.00;0.00;0.62;0.00;0.00;0.62;7.03;5.90;;;17.10;18.00;;;;;;2268535;61;20962;-64
2022/12/18 03:39:14;0.00;0.00;0.62;0.00;0.00;0.62;6.90;6.20;;;17.00;17.40;;;;;;2267872;61;20375;-64
2022/12/18 03:42:08;0.00;0.00;0.62;0.00;0.00;0.62;6.53;5.80;;;17.00;17.60;;;;;;2264715;61;20347;-63
2022/12/18 03:45:07;0.00;0.00;0.62;0.00;0.00;0.62;7.03;6.30;;;16.90;17.70;;;;;;2265395;61;20406;-63
2022/12/18 03:48:02;0.00;0.00;0.62;0.00;0.00;0.62;8.00;6.63;;;16.90;17.80;;;;;;2264026;61;20363;-64
2022/12/18 03:50:57;0.00;0.00;0.62;0.00;0.00;0.62;6.47;5.40;;;16.80;17.70;;;;;;2268182;61;20390;-63
2022/12/18 03:53:52;0.00;0.00;0.62;0.00;0.00;0.62;7.07;5.97;;;16.80;17.80;;;;;;2264514;61;20382;-64
2022/12/18 03:56:46;0.00;0.00;0.62;0.00;0.00;0.62;6.73;5.90;;;16.80;17.80;;;;;;2264889;61;20371;-64
2022/12/18 03:59:33;0.00;0.00;0.62;0.00;0.00;0.62;7.33;6.10;;;16.70;17.80;;;;;;2265208;61;20397;-62
2022/12/18 04:02:18;0.00;0.00;0.62;0.00;0.00;0.62;5.47;4.90;;;16.70;18.40;;;;;;2263894;61;20367;-64
2022/12/18 04:05:07;0.00;0.00;0.62;0.00;0.00;0.62;5.60;5.00;;;16.70;18.00;;;;;;2268245;61;20425;-62
2022/12/18 04:07:57;0.00;0.00;0.62;0.00;0.00;0.62;4.93;4.43;;;16.70;18.10;;;;;;2265302;61;20359;-64
2022/12/18 04:10:43;0.00;0.00;0.62;0.00;0.00;0.62;5.47;4.80;;;16.70;18.20;;;;;;2264020;61;20405;-63
2022/12/18 04:13:32;0.00;0.00;0.62;0.00;0.00;0.62;5.73;4.20;;;16.70;18.30;;;;;;2264984;61;20387;-64
2022/12/18 04:16:20;0.00;0.00;0.62;0.00;0.00;0.62;6.00;4.93;;;16.80;18.40;;;;;;2264596;61;20403;-64
2022/12/18 04:19:08;0.00;0.00;0.62;0.00;0.00;0.62;6.30;4.67;;;16.80;18.50;;;;;;2267718;61;20510;-64
2022/12/18 04:21:57;0.00;0.00;0.62;0.00;0.00;0.62;5.97;4.57;;;16.80;18.50;;;;;;2264881;61;20766;-64
2022/12/18 04:24:42;0.00;0.00;0.62;0.00;0.00;0.62;4.10;3.70;;;16.80;18.60;;;;;;2267008;61;20416;-64
2022/12/18 04:27:35;0.00;0.00;0.62;0.00;0.00;0.62;4.50;4.00;;;16.90;18.70;;;;;;2265222;61;20395;-64
2022/12/18 04:30:20;0.00;0.00;0.62;0.00;0.00;0.62;3.93;3.47;;;16.90;18.80;;;;;;2265125;61;20409;-64
2022/12/18 04:33:09;0.00;0.00;0.62;0.00;0.00;0.62;4.47;3.70;;;16.90;18.80;;;;;;2264102;61;20887;-64
2022/12/18 04:35:55;0.00;0.00;0.62;0.00;0.00;0.62;4.93;3.53;;;17.00;18.90;;;;;;2265062;61;20452;-63
2022/12/18 04:38:40;0.00;0.00;0.62;0.00;0.00;0.62;3.93;3.53;;;17.00;18.90;;;;;;2264409;61;20881;-64
2022/12/18 04:41:29;0.00;0.00;0.62;0.00;0.00;0.62;4.43;3.53;;;17.00;19.00;;;;;;2265213;61;20363;-63
2022/12/18 04:44:15;0.00;0.00;0.62;0.00;0.00;0.62;3.47;3.07;;;17.00;19.00;;;;;;2264876;61;20859;-63
2022/12/18 04:47:00;0.00;0.00;0.62;0.00;0.00;0.62;3.83;3.47;;;17.00;19.00;;;;;;2263954;61;20367;-63
2022/12/18 04:49:45;0.00;0.00;0.62;0.00;0.00;0.62;5.73;4.10;;;17.10;19.10;;;;;;2268148;61;20474;-63
2022/12/18 04:52:29;0.00;0.00;0.62;0.00;0.00;0.62;4.33;3.77;;;17.10;19.60;;;;;;2265024;61;20362;-63
2022/12/18 04:55:16;0.00;0.00;0.62;0.00;0.00;0.62;7.00;2.90;;;17.10;19.20;;;;;;2267542;61;20410;-63
2022/12/18 04:58:00;0.00;0.00;0.62;0.00;0.00;0.62;3.73;3.33;;;17.10;19.20;;;;;;2268183;61;20367;-63
2022/12/18 05:00:47;0.00;0.00;0.62;0.00;0.00;0.62;3.87;3.10;;;17.10;19.20;;;;;;2267901;61;20404;-64
2022/12/18 05:03:32;0.00;0.00;0.62;0.00;0.00;0.62;3.50;3.20;;;17.20;19.80;;;;;;2267807;61;20898;-65
2022/12/18 05:06:16;0.00;0.00;0.62;0.00;0.00;0.62;4.20;3.30;;;17.20;19.30;;;;;;2268377;61;20423;-63
2022/12/18 05:09:01;0.00;0.00;0.62;0.00;0.00;0.62;3.87;3.23;;;17.20;19.30;;;;;;2267250;61;20482;-64
2022/12/18 05:11:46;0.00;0.00;0.62;0.00;0.00;0.62;3.37;2.40;;;17.20;19.30;;;;;;2268062;61;20363;-63
2022/12/18 05:14:31;0.00;0.00;0.62;0.00;0.00;0.62;4.10;3.13;;;17.20;19.40;;;;;;2268150;61;20414;-65
2022/12/18 05:17:17;0.00;0.00;0.62;0.00;0.00;0.62;3.63;2.70;;;17.20;19.90;;;;;;2267867;61;20763;-63
2022/12/18 05:20:03;0.00;0.00;0.62;0.00;0.00;0.62;3.97;3.13;;;17.20;19.40;;;;;;2269051;61;20841;-64
2022/12/18 05:22:48;0.00;0.00;0.62;0.00;0.00;0.62;3.20;2.40;;;17.30;19.50;;;;;;2268526;61;20813;-65
2022/12/18 05:25:32;0.00;0.00;0.62;0.00;0.00;0.62;3.30;2.87;;;17.30;19.50;;;;;;2265269;61;20757;-63
2022/12/18 05:28:17;0.00;0.00;0.62;0.00;0.00;0.62;3.07;2.67;;;17.30;19.50;;;;;;2268791;61;20366;-64
2022/12/18 05:31:04;0.00;0.00;0.62;0.00;0.00;0.62;3.33;2.60;;;17.30;20.10;;;;;;2267859;61;20363;-63
2022/12/18 05:33:50;0.00;0.00;0.62;0.00;0.00;0.62;3.80;3.00;;;17.30;19.50;;;;;;2268497;61;20394;-63
2022/12/18 05:36:35;0.00;0.00;0.62;0.00;0.00;0.62;3.30;2.70;;;17.30;19.50;;;;;;2268869;61;20375;-65
2022/12/18 05:39:20;0.00;0.00;0.62;0.00;0.00;0.62;4.03;3.17;;;17.30;19.50;;;;;;2267723;61;20401;-64
2022/12/18 05:42:05;0.00;0.00;0.62;0.00;0.00;0.62;3.13;2.33;;;17.40;19.60;;;;;;2268779;61;20359;-63
2022/12/18 05:44:50;0.00;0.00;0.62;0.00;0.00;0.62;2.93;2.50;;;17.40;19.60;;;;;;2268526;61;20394;-63
2022/12/18 05:47:35;0.00;0.00;0.62;0.00;0.00;0.62;2.37;2.13;;;17.40;20.20;;;;;;2264848;61;20763;-64
2022/12/18 05:50:21;0.00;0.00;0.62;0.00;0.00;0.62;3.60;2.80;;;17.40;19.90;;;;;;2268723;61;20462;-64
2022/12/18 05:53:06;0.00;0.00;0.62;0.00;0.00;0.62;3.33;2.70;;;17.40;19.60;;;;;;2267536;61;20390;-64
2022/12/18 05:55:51;0.00;0.00;0.62;0.00;0.00;0.62;3.70;3.23;;;17.40;19.60;;;;;;2268732;61;20417;-63
2022/12/18 05:58:36;0.00;0.00;0.62;0.00;0.00;0.62;2.83;2.00;;;17.50;19.70;;;;;;2268839;61;20367;-63
2022/12/18 06:01:25;0.00;0.00;0.62;0.00;0.00;0.62;2.60;2.40;;;17.50;20.00;;;;;;2267706;61;20412;-64
2022/12/18 06:04:09;0.00;0.00;0.62;0.00;0.00;0.62;3.60;2.80;;;17.50;19.70;;;;;;2268807;61;20379;-65
2022/12/18 06:06:55;0.00;0.00;0.62;0.00;0.00;0.62;2.63;2.07;;;17.50;19.80;;;;;;2268177;61;20920;-64
2022/12/18 06:09:40;0.00;0.00;0.62;0.00;0.00;0.62;3.00;2.70;;;17.50;19.80;;;;;;2268053;61;20413;-63
2022/12/18 06:12:25;0.00;0.00;0.62;0.00;0.00;0.62;3.57;3.07;;;17.50;19.80;;;;;;2268628;61;20401;-64
2022/12/18 06:15:10;0.00;0.00;0.62;0.00;0.00;0.62;2.53;1.90;;;17.50;19.80;;;;;;2264552;61;20387;-65
2022/12/18 06:17:55;0.00;0.00;0.62;0.00;0.00;0.62;3.20;2.50;;;17.50;19.80;;;;;;2268769;61;20840;-63
2022/12/18 06:20:41;0.00;0.00;0.62;0.00;0.00;0.62;2.63;2.10;;;17.50;19.80;;;;;;2268860;61;20839;-63
2022/12/18 06:23:26;0.00;0.00;0.62;0.00;0.00;0.62;2.80;2.37;;;17.60;19.90;;;;;;2267435;61;20969;-63
2022/12/18 06:26:13;0.00;0.00;0.62;0.00;0.00;0.62;3.53;2.27;;;17.60;19.90;;;;;;2268841;61;20371;-64
2022/12/18 06:28:58;0.00;0.00;0.62;0.00;0.00;0.62;3.10;2.43;;;17.60;19.90;;;;;;2268447;61;20367;-64
2022/12/18 06:31:43;0.00;0.00;0.62;0.00;0.00;0.62;2.90;2.20;;;17.60;19.90;;;;;;2267984;61;20986;-64
2022/12/18 06:34:27;0.00;0.00;0.62;0.00;0.00;0.62;2.33;1.80;;;17.60;19.90;;;;;;2265352;61;20464;-65
2022/12/18 06:37:12;0.00;0.00;0.62;0.00;0.00;0.62;2.67;1.93;;;17.60;19.90;;;;;;2267918;61;20362;-64
2022/12/18 06:39:58;0.00;0.00;0.62;0.00;0.00;0.62;2.63;1.97;;;17.60;20.40;;;;;;2268893;61;20371;-63
2022/12/18 06:42:43;0.00;0.00;0.62;0.00;0.00;0.62;3.40;2.50;;;17.60;20.00;;;;;;2268561;61;20420;-65
2022/12/18 06:45:28;0.00;0.00;0.62;0.00;0.00;0.62;2.67;2.00;;;17.60;20.00;;;;;;2267541;61;20403;-62
2022/12/18 06:48:12;0.00;0.00;0.62;0.00;0.00;0.62;2.33;1.77;;;17.60;19.90;;;;;;2268711;61;20363;-65
2022/12/18 06:50:57;0.00;0.00;0.62;0.00;0.00;0.62;2.63;1.93;;;17.60;20.00;;;;;;2268502;61;20406;-64
2022/12/18 06:53:42;0.00;0.00;0.62;0.00;0.00;0.62;2.47;1.97;;;17.60;20.00;;;;;;2267624;61;20453;-63
2022/12/18 06:56:28;0.00;0.00;0.62;0.00;0.00;0.62;2.40;2.00;;;17.60;19.90;;;;;;2265307;61;20846;-64
2022/12/18 06:59:14;0.00;0.00;0.62;0.00;0.00;0.62;2.30;1.90;;;17.70;20.00;;;;;;2268155;61;20371;-65
2022/12/18 07:01:58;0.00;0.00;0.62;0.00;0.00;0.62;2.50;2.13;;;17.70;20.00;;;;;;2268446;61;20829;-64
2022/12/18 07:04:43;0.00;0.00;0.62;0.00;0.00;0.62;2.40;1.60;;;17.70;20.00;;;;;;2268597;61;20382;-64
2022/12/18 07:07:28;0.00;0.00;0.62;0.00;0.00;0.62;3.20;2.40;;;17.70;20.00;;;;;;2267400;61;20362;-64
2022/12/18 07:10:13;0.00;0.00;0.62;0.00;0.00;0.62;2.37;1.80;;;17.70;20.00;;;;;;2268639;61;20758;-64
2022/12/18 07:12:59;0.00;0.00;0.62;0.00;0.00;0.62;2.20;1.70;;;17.70;20.00;;;;;;2268415;61;20379;-64
2022/12/18 07:15:43;0.00;0.00;0.62;0.00;0.00;0.62;1.90;1.37;;;17.70;20.00;;;;;;2267407;61;20368;-63
2022/12/18 07:18:28;0.00;0.00;0.62;0.00;0.00;0.62;2.30;1.70;;;17.70;20.00;;;;;;2268478;61;20771;-63
2022/12/18 07:21:16;0.00;0.00;0.62;0.00;0.00;0.62;2.83;1.73;;;17.70;20.00;;;;;;2268388;61;20386;-63
2022/12/18 07:24:01;0.00;0.00;0.62;0.00;0.00;0.62;2.10;1.90;;;17.70;20.00;;;;;;2268074;61;20375;-64
2022/12/18 07:26:46;0.00;0.00;0.62;0.00;0.00;0.62;2.80;1.80;;;17.70;20.00;;;;;;2268464;61;20406;-63
2022/12/18 07:29:32;0.00;0.00;0.62;0.00;0.00;0.62;3.27;2.27;;;17.70;20.00;;;;;;2267436;61;20856;-64
2022/12/18 07:32:16;0.00;0.00;0.62;0.00;0.00;0.62;2.30;1.77;;;17.70;20.00;;;;;;2268332;61;20403;-64
2022/12/18 07:35:01;0.00;0.00;0.62;0.00;0.00;0.62;2.57;1.80;;;17.70;20.00;;;;;;2268421;61;20506;-65
2022/12/18 07:37:45;0.00;0.00;0.62;0.00;0.00;0.62;2.20;1.70;;;17.70;20.10;;;;;;2267499;61;20363;-64
2022/12/18 07:40:30;0.00;0.00;0.62;0.00;0.00;0.62;2.70;1.90;;;17.70;20.10;;;;;;2268321;61;20387;-64
2022/12/18 07:43:14;0.00;0.00;0.62;0.00;0.00;0.62;2.43;2.23;;;17.70;20.10;;;;;;2268174;61;20482;-63
2022/12/18 07:46:00;0.00;0.00;0.62;0.00;0.00;0.62;2.30;1.80;;;17.70;20.10;;;;;;2267667;61;20405;-64
2022/12/18 07:48:45;0.00;0.00;0.62;0.00;0.00;0.62;2.70;2.07;;;17.70;20.10;;;;;;2268488;61;20478;-63
2022/12/18 07:51:30;0.00;0.00;0.62;0.00;0.00;0.62;2.27;1.70;;;17.70;20.10;;;;;;2267396;61;20409;-64
2022/12/18 07:54:15;0.00;0.00;0.62;0.00;0.00;0.62;4.53;1.83;;;17.70;20.10;;;;;;2268313;61;20394;-65
2022/12/18 07:57:00;0.00;0.00;0.62;0.00;0.00;0.62;2.20;1.77;;;17.70;20.10;;;;;;2268549;61;20362;-64
2022/12/18 07:59:44;0.00;0.00;0.62;0.00;0.00;0.62;2.17;1.57;;;17.70;20.10;;;;;;2267314;61;20374;-64
2022/12/18 08:02:32;0.00;0.00;0.62;0.00;0.00;0.62;2.93;1.40;;;17.70;20.10;;;;;;2268340;61;20393;-64
2022/12/18 08:05:17;0.00;0.00;0.62;0.00;0.00;0.62;2.00;1.60;;;17.70;20.10;;;;;;2265087;61;20455;-63
2022/12/18 08:08:01;0.00;0.00;0.62;0.00;0.00;0.62;2.50;1.80;;;17.70;20.10;;;;;;2267643;61;20386;-65
2022/12/18 08:10:46;0.00;0.00;0.62;0.00;0.00;0.62;2.73;1.37;;;17.70;20.20;;;;;;2268445;61;20366;-62
2022/12/18 08:13:31;0.00;0.00;0.62;0.00;0.00;0.62;2.00;1.30;;;17.80;20.20;;;;;;2267358;61;20390;-64
2022/12/18 08:16:17;0.00;0.00;0.62;0.00;0.00;0.62;2.07;1.43;;;17.80;20.30;;;;;;2268371;61;20359;-63
2022/12/18 08:19:03;0.00;0.00;0.62;0.00;0.00;0.62;2.00;1.47;;;17.80;20.20;;;;;;2268442;61;20407;-63
2022/12/18 08:21:48;0.00;0.00;0.62;0.00;0.00;0.62;1.77;1.30;;;17.80;20.30;;;;;;2267158;61;20509;-63
2022/12/18 08:24:32;0.00;0.00;0.62;0.00;0.00;0.62;1.70;1.40;;;17.80;20.20;;;;;;2268355;61;20946;-64
2022/12/18 08:27:17;0.00;0.00;0.62;0.00;0.00;0.62;2.07;1.57;;;17.80;20.20;;;;;;2268427;61;20489;-63
2022/12/18 08:30:03;0.00;0.00;0.62;0.00;0.00;0.62;2.10;1.57;;;17.80;20.20;;;;;;2267566;61;20358;-63
2022/12/18 08:32:52;0.00;0.00;0.62;0.00;0.00;0.62;1.60;1.20;;;17.80;20.30;;;;;;2268187;61;20409;-63
2022/12/18 08:35:38;0.00;0.00;0.62;0.00;0.00;0.62;3.20;2.70;;;17.80;20.30;;;;;;2264311;61;20358;-62
2022/12/18 08:38:23;0.00;0.00;0.62;0.00;0.00;0.62;4.60;4.00;;;17.80;20.00;;;;;;2268515;61;20367;-65
2022/12/18 08:41:10;0.00;0.00;0.62;0.00;0.00;0.62;5.93;4.90;;;17.70;18.60;;;;;;2268301;61;20359;-63
2022/12/18 08:46:59;0.00;0.00;0.62;0.00;0.00;0.62;4.67;4.07;;;17.50;18.00;;;;;;2268250;61;20392;-63
2022/12/18 08:49:43;0.00;0.00;0.62;0.00;0.00;0.62;4.43;3.70;;;17.40;19.10;;;;;;2267997;61;20371;-64
2022/12/18 08:52:32;0.00;0.00;0.62;0.00;0.00;0.62;4.43;3.57;;;17.30;18.90;;;;;;2268345;61;20492;-66
2022/12/18 08:55:16;0.00;0.00;0.62;0.00;0.00;0.62;6.60;3.97;;;17.30;19.10;;;;;;2269113;61;20351;-66
2022/12/18 08:58:01;0.00;0.00;0.62;0.00;0.00;0.62;4.90;3.43;;;17.30;19.30;;;;;;2264917;61;20802;-64
2022/12/18 09:00:46;0.00;0.00;0.62;0.00;0.00;0.62;3.60;3.00;;;17.30;19.50;;;;;;2269080;61;20758;-66
2022/12/18 09:03:31;0.00;0.00;0.62;0.00;0.00;0.62;3.90;3.10;;;17.30;19.70;;;;;;2268867;61;20421;-63
2022/12/18 09:06:17;0.00;0.00;0.62;0.00;0.00;0.62;3.83;3.20;;;17.30;19.80;;;;;;2267937;61;20366;-62
2022/12/18 09:09:04;0.00;0.00;0.62;0.00;0.00;0.62;4.43;2.87;;;17.30;19.90;;;;;;2268895;61;20406;-64
2022/12/18 09:11:49;0.00;0.00;0.62;0.00;0.00;0.62;4.33;3.20;;;17.40;20.10;;;;;;2267274;61;20464;-66
2022/12/18 09:14:34;0.00;0.00;0.62;0.00;0.00;0.62;4.83;3.00;;;17.40;20.10;;;;;;2267983;61;20968;-68
2022/12/18 09:17:18;0.00;0.00;0.62;0.00;0.00;0.62;2.57;2.10;;;17.50;20.20;;;;;;2268785;61;20444;-68
2022/12/18 09:20:04;0.00;0.00;0.62;0.00;0.00;0.62;2.93;2.00;;;17.50;20.30;;;;;;2268232;61;20870;-65
2022/12/18 09:22:49;0.00;0.00;0.62;0.00;0.00;0.62;3.20;2.90;;;17.50;20.30;;;;;;2268739;61;20425;-65
2022/12/18 09:25:35;0.00;0.00;0.62;0.00;0.00;0.62;3.07;2.47;;;17.60;20.40;;;;;;2267359;61;20409;-64
2022/12/18 09:28:20;0.00;0.00;0.62;0.00;0.00;0.62;2.70;2.23;;;17.60;20.40;;;;;;2267790;61;20402;-67
2022/12/18 09:31:08;0.00;0.00;0.62;0.00;0.00;0.62;3.43;2.43;;;17.70;20.50;;;;;;2268474;61;20897;-62
2022/12/18 09:33:55;0.00;0.00;0.62;0.00;0.00;0.62;2.70;2.23;;;17.70;20.50;;;;;;2294700;57;20926;-61
2022/12/18 09:36:40;0.00;0.00;0.62;0.00;0.00;0.62;3.33;2.47;;;17.80;20.50;;;;;;2264289;61;20368;-67
2022/12/18 09:39:24;0.00;0.00;0.62;0.00;0.00;0.62;5.43;2.40;;;17.80;20.50;;;;;;2270872;61;20369;-64
2022/12/18 09:42:16;0.00;0.00;0.62;0.00;0.00;0.62;2.60;1.90;;;17.90;20.70;;;;;;2677689;45;20368;-64
2022/12/18 09:45:02;0.00;0.00;0.62;0.00;0.00;0.62;3.20;2.57;;;17.90;20.70;;;;;;2264960;61;20446;-64
2022/12/18 09:47:49;0.00;0.00;0.62;0.00;0.00;0.62;2.60;2.10;;;18.00;20.70;;;;;;2264653;61;20940;-66
2022/12/18 09:50:39;0.00;0.00;0.62;0.00;0.00;0.62;2.83;1.87;;;18.00;20.70;;;;;;2263828;61;20493;-64
2022/12/18 09:53:30;0.00;0.00;0.62;0.00;0.00;0.62;2.83;2.20;;;18.00;20.70;;;;;;2264513;61;20395;-67
2022/12/18 09:56:22;0.00;0.00;0.62;0.00;0.00;0.62;2.87;2.00;;;18.10;20.80;;;;;;2264436;61;20348;-69
2022/12/18 09:59:22;0.00;0.00;0.62;0.00;0.00;0.62;2.93;1.90;;;18.10;20.80;;;;;;2263903;61;20773;-62
2022/12/18 10:02:16;0.00;0.00;0.62;0.00;0.00;0.62;2.90;2.00;;;18.20;20.90;;;;;;2264409;61;20403;-64
2022/12/18 10:05:06;0.00;0.00;0.62;0.00;0.00;0.62;2.23;1.60;;;18.20;20.80;;;;;;2263637;61;20388;-67
2022/12/18 10:08:02;0.00;0.00;0.62;0.00;0.00;0.62;2.10;1.53;;;18.20;20.80;;;;;;2261492;61;20495;-65
2022/12/18 10:10:51;0.00;0.00;0.62;0.00;0.00;0.62;2.77;2.53;;;18.30;20.90;;;;;;2264470;61;20407;-64
2022/12/18 10:13:41;0.00;0.00;0.62;0.00;0.00;0.62;2.27;1.63;;;18.30;20.80;;;;;;2263702;61;20991;-65
2022/12/18 10:16:37;0.00;0.00;0.62;0.00;0.00;0.62;2.57;1.80;;;18.40;20.90;;;;;;2266487;61;20452;-68
2022/12/18 10:19:37;0.00;0.00;0.62;0.00;0.00;0.62;2.53;1.90;;;18.40;20.80;;;;;;2291102;61;20421;-64
2022/12/18 10:22:42;0.00;0.00;0.62;0.00;0.00;0.62;2.47;1.73;;;18.50;20.90;;;;;;2268547;61;20768;-67
2022/12/18 10:25:32;0.00;0.00;0.62;0.00;0.00;0.62;1.80;1.43;;;18.50;20.90;;;;;;2268802;61;20748;-63
2022/12/18 10:28:19;0.00;0.00;0.62;0.00;0.00;0.62;2.47;1.97;;;18.50;20.90;;;;;;2268222;61;20406;-63
2022/12/18 10:31:06;0.00;0.00;0.62;0.00;0.00;0.62;3.30;2.40;;;18.60;21.00;;;;;;2268822;61;20367;-70
2022/12/18 10:33:54;0.00;0.00;0.62;0.00;0.00;0.62;2.70;2.07;;;18.60;21.00;;;;;;2267871;61;20394;-61
2022/12/18 10:36:39;0.00;0.00;0.62;0.00;0.00;0.62;2.33;1.43;;;18.70;21.00;;;;;;2268665;61;20383;-66
2022/12/18 10:39:26;0.00;0.00;0.62;0.00;0.00;0.62;1.80;1.47;;;18.70;21.00;;;;;;2268788;61;20359;-64
2022/12/18 10:42:17;0.00;0.00;0.62;0.00;0.00;0.62;1.90;1.67;;;18.70;20.90;;;;;;2267592;61;20362;-66
2022/12/18 10:45:09;0.00;0.00;0.62;0.00;0.00;0.62;2.40;1.90;;;18.70;20.90;;;;;;2268529;61;20387;-63
2022/12/18 10:47:53;0.00;0.00;0.62;0.00;0.00;0.62;2.00;1.40;;;18.80;20.90;;;;;;2268660;61;20403;-65
2022/12/18 10:50:40;0.00;0.00;0.62;0.00;0.00;0.62;2.57;1.53;;;18.80;20.90;;;;;;2267800;61;20355;-66
2022/12/18 10:53:27;0.00;0.00;0.62;0.00;0.00;0.62;2.13;1.77;;;18.80;20.90;;;;;;2268414;61;20961;-64
2022/12/18 10:56:12;0.00;0.00;0.62;0.00;0.00;0.62;1.87;1.43;;;18.80;20.90;;;;;;2267965;61;20894;-65
2022/12/18 10:59:01;0.00;0.00;0.62;0.00;0.00;0.62;1.70;1.20;;;18.90;21.00;;;;;;2268660;61;20450;-64
2022/12/18 11:01:51;0.00;0.00;0.62;0.00;0.00;0.62;2.20;1.50;;;18.90;20.90;;;;;;2268441;61;20367;-64
2022/12/18 11:04:50;0.00;0.00;0.62;0.00;0.00;0.62;1.80;1.40;;;18.90;20.90;;;;;;2267701;61;20837;-65